createdAt,value
2022-11-24T07:29:30.571Z,23.45
2022-11-24T07:32:02.137Z,23.80
2022-11-24T07:34:32.258Z,21.40
2022-11-24T07:36:59.494Z,20.90
2022-11-24T07:39:26.286Z,19.52
2022-11-24T07:41:53.174Z,19.15
2022-11-24T07:44:20.043Z,24.08
2022-11-24T07:46:46.959Z,22.95
2022-11-24T12:05:32.649Z,30.98
2022-11-24T12:08:21.110Z,30.42
2022-11-24T12:10:53.639Z,32.58
2022-11-24T12:13:20.402Z,30.35
2022-11-24T12:15:53.232Z,29.95
2022-11-24T12:18:57.962Z,28.75
2022-11-24T12:21:36.850Z,29.65
2022-11-24T12:24:45.257Z,28.08
2022-11-24T12:27:47.455Z,30.40
2022-11-24T12:30:20.571Z,31.92
2022-11-24T12:33:19.398Z,32.20
2022-11-24T12:36:08.063Z,30.73
2022-11-24T12:38:41.066Z,30.02
2022-11-24T12:44:00.218Z,30.35
2022-11-24T12:46:34.724Z,33.28
2022-11-24T12:49:19.631Z,31.00
2022-11-24T12:52:01.424Z,33.03
2022-11-24T12:54:36.693Z,30.38
2022-11-24T12:57:21.232Z,29.77
2022-11-24T13:00:06.939Z,29.52
2022-11-24T13:03:11.997Z,31.20
2022-11-24T13:06:08.980Z,31.13
2022-11-24T13:08:36.943Z,29.65
2022-11-24T13:11:21.858Z,29.83
2022-11-24T13:14:07.343Z,28.45
2022-11-24T13:16:37.017Z,30.38
2022-11-24T13:19:13.708Z,29.02
2022-11-24T13:21:40.595Z,27.52
2022-11-24T13:26:52.667Z,28.02
2022-11-24T13:29:31.258Z,28.08
2022-11-24T13:32:07.106Z,29.35
2022-11-24T13:34:42.900Z,27.60
2022-11-24T13:37:42.242Z,29.15
2022-11-24T13:40:12.360Z,28.38
2022-11-24T13:42:57.594Z,28.17
2022-11-24T13:45:40.054Z,26.38
2022-11-24T13:48:19.478Z,28.50
2022-11-24T13:50:58.229Z,29.80
2022-11-24T13:53:41.957Z,29.67
2022-11-24T13:56:30.310Z,28.23
2022-11-24T13:59:00.119Z,30.65
2022-11-24T14:01:36.240Z,27.15
2022-11-24T14:04:29.884Z,27.65
2022-11-24T14:07:09.141Z,30.48
2022-11-24T14:09:48.252Z,27.85
2022-11-24T14:12:23.380Z,29.33
2022-11-24T14:14:52.010Z,27.90
2022-11-24T14:17:24.606Z,27.58
2022-11-24T14:22:34.799Z,29.25
2022-11-24T14:25:02.646Z,26.87
2022-11-24T14:27:38.454Z,28.13
2022-11-24T14:30:13.368Z,28.25
2022-11-24T14:32:42.222Z,28.08
2022-11-24T14:35:29.250Z,28.17
2022-11-24T14:37:56.495Z,28.35
2022-11-24T14:40:50.075Z,26.13
2022-11-24T14:43:33.094Z,27.45
2022-11-24T14:46:04.377Z,28.40
2022-11-24T14:48:36.681Z,25.17
2022-11-24T14:51:08.477Z,28.75
2022-11-24T14:53:35.959Z,28.45
2022-11-24T14:56:30.177Z,26.15
2022-11-24T14:58:58.841Z,27.48
2022-11-24T15:01:28.602Z,26.23
2022-11-24T15:04:26.616Z,27.33
2022-11-24T15:07:21.967Z,26.88
2022-11-24T15:09:50.104Z,25.65
2022-11-24T15:12:34.289Z,30.08
2022-11-24T15:15:05.810Z,27.63
2022-11-24T15:17:34.884Z,28.33
2022-11-24T15:20:09.698Z,29.42
2022-11-24T15:22:44.782Z,28.85
2022-11-24T15:25:33.529Z,29.95
2022-11-24T15:28:02.670Z,28.23
2022-11-24T15:30:30.574Z,27.00
2022-11-24T15:32:59.054Z,25.90
2022-11-24T15:35:29.551Z,26.90
2022-11-24T15:37:56.362Z,27.60
2022-11-24T15:40:23.797Z,27.13
2022-11-24T15:42:55.591Z,27.00
2022-11-24T15:45:26.277Z,25.13
2022-11-24T15:47:53.398Z,27.63
2022-11-24T15:50:23.066Z,30.75
2022-11-24T15:52:50.086Z,27.95
2022-11-24T15:55:22.025Z,28.42
2022-11-24T15:57:49.877Z,25.20
2022-11-24T16:00:19.525Z,28.60
2022-11-24T16:02:46.666Z,28.48
2022-11-24T16:05:14.650Z,28.27
2022-11-24T16:07:41.519Z,30.92
2022-11-24T16:10:32.706Z,28.95
2022-11-24T16:12:59.514Z,30.23
2022-11-24T16:15:26.354Z,31.17
2022-11-24T16:17:53.445Z,31.20
2022-11-24T16:20:20.485Z,30.83
2022-11-24T16:22:47.566Z,31.67
2022-11-24T16:25:14.867Z,31.52
2022-11-24T16:27:41.947Z,31.83
2022-11-24T16:30:12.162Z,34.13
2022-11-24T16:32:39.330Z,35.70
2022-11-24T16:35:06.658Z,33.28
2022-11-24T16:37:33.546Z,29.58
2022-11-24T16:40:02.532Z,32.03
2022-11-24T16:42:29.714Z,32.33
2022-11-24T16:44:57.429Z,30.15
2022-11-24T16:47:24.242Z,31.25
2022-11-24T16:49:51.052Z,38.22
2022-11-24T16:52:18.322Z,35.88
2022-11-24T16:54:48.278Z,35.80
2022-11-24T16:57:15.769Z,33.03
2022-11-24T16:59:43.547Z,33.03
2022-11-24T17:02:12.927Z,33.60
2022-11-24T17:04:40.327Z,30.90
2022-11-24T17:07:07.877Z,31.13
2022-11-24T17:09:40.293Z,29.38
2022-11-24T17:12:07.960Z,31.77
2022-11-24T17:14:35.145Z,34.28
2022-11-24T17:17:03.069Z,33.10
2022-11-24T17:19:31.844Z,32.97
2022-11-24T17:22:01.911Z,34.38
2022-11-24T17:24:28.758Z,36.10
2022-11-24T17:26:56.154Z,33.80
2022-11-24T17:29:25.841Z,29.13
2022-11-24T17:31:52.730Z,27.95
2022-11-24T17:34:19.938Z,28.52
2022-11-24T17:36:46.863Z,27.17
2022-11-24T17:39:13.706Z,28.92
2022-11-24T17:41:40.989Z,31.52
2022-11-24T17:44:08.677Z,32.00
2022-11-24T17:46:37.159Z,32.40
2022-11-24T17:49:06.023Z,29.67
2022-11-24T17:51:32.928Z,31.85
2022-11-24T17:54:01.235Z,32.78
2022-11-24T17:56:32.963Z,31.70
2022-11-24T17:59:00.807Z,33.28
2022-11-24T18:01:31.560Z,32.38
2022-11-24T18:03:58.870Z,31.70
2022-11-24T18:06:26.315Z,31.83
2022-11-24T18:08:54.188Z,36.10
2022-11-24T18:11:31.085Z,33.53
2022-11-24T18:14:02.147Z,31.38
2022-11-24T18:16:31.387Z,32.85
2022-11-24T18:19:09.829Z,35.00
2022-11-24T18:21:45.141Z,36.17
2022-11-24T18:24:13.020Z,36.53
2022-11-24T18:26:41.903Z,41.55
2022-11-24T18:29:09.871Z,41.40
2022-11-24T18:31:39.506Z,41.47
2022-11-24T18:34:06.829Z,42.13
2022-11-24T18:36:34.673Z,36.58
2022-11-24T18:39:03.622Z,30.85
2022-11-24T18:41:30.664Z,30.20
2022-11-24T18:43:57.443Z,31.77
2022-11-24T18:46:27.073Z,32.15
2022-11-24T18:48:54.844Z,31.10
2022-11-24T18:51:23.101Z,29.80
2022-11-24T18:53:58.072Z,29.83
2022-11-24T18:56:25.574Z,32.55
2022-11-24T18:58:54.219Z,28.15
2022-11-24T19:01:26.245Z,28.88
2022-11-24T19:03:58.420Z,28.67
2022-11-24T19:06:31.884Z,32.92
2022-11-24T19:09:00.443Z,31.65
2022-11-24T19:11:33.687Z,31.15
2022-11-24T19:14:01.781Z,31.02
2022-11-24T19:16:29.153Z,35.10
2022-11-24T19:18:59.979Z,31.77
2022-11-24T19:21:27.694Z,36.17
2022-11-24T19:23:57.482Z,33.42
2022-11-24T19:26:26.771Z,33.17
2022-11-24T19:28:53.663Z,31.15
2022-11-24T19:31:20.611Z,30.08
2022-11-24T19:33:47.574Z,28.95
2022-11-24T19:36:18.277Z,25.48
2022-11-24T19:38:53.489Z,24.42
2022-11-24T19:41:22.595Z,25.42
2022-11-24T19:43:49.997Z,27.20
2022-11-24T19:46:19.013Z,27.33
2022-11-24T19:48:50.110Z,28.00
2022-11-24T19:51:19.541Z,25.52
2022-11-24T19:53:46.966Z,27.83
2022-11-24T19:56:17.334Z,26.45
2022-11-24T19:58:44.377Z,25.27
2022-11-24T20:01:16.058Z,26.52
2022-11-24T20:03:44.677Z,26.20
2022-11-24T20:06:12.869Z,29.48
2022-11-24T20:08:40.860Z,32.15
2022-11-24T20:11:08.933Z,33.35
2022-11-24T20:13:37.559Z,34.72
2022-11-24T20:16:05.241Z,46.13
2022-11-24T20:18:36.334Z,54.83
2022-11-24T20:21:17.610Z,52.22
2022-11-24T20:23:46.182Z,43.28
2022-11-24T20:26:19.710Z,35.80
2022-11-24T20:28:47.234Z,33.65
2022-11-24T20:31:20.690Z,31.75
2022-11-24T20:33:47.518Z,32.28
2022-11-24T20:36:16.941Z,37.67
2022-11-24T20:38:45.175Z,32.45
2022-11-24T20:41:14.506Z,34.65
2022-11-24T20:43:42.349Z,34.72
2022-11-24T20:46:15.255Z,32.75
2022-11-24T20:48:42.559Z,30.23
2022-11-24T20:51:11.790Z,27.27
2022-11-24T20:53:39.053Z,23.88
2022-11-24T20:56:12.495Z,25.08
2022-11-24T20:58:40.175Z,31.55
2022-11-24T21:01:12.805Z,30.42
2022-11-24T21:03:43.297Z,28.50
2022-11-24T21:06:11.724Z,30.65
2022-11-24T21:08:40.571Z,21.83
2022-11-24T21:11:09.645Z,26.92
2022-11-24T21:13:38.334Z,27.98
2022-11-24T21:16:26.565Z,30.67
2022-11-24T21:18:57.385Z,32.10
2022-11-24T21:21:25.672Z,35.97
2022-11-24T21:23:52.564Z,37.90
2022-11-24T21:26:20.016Z,36.22
2022-11-24T21:28:48.134Z,38.30
2022-11-24T21:31:17.456Z,38.03
2022-11-24T21:33:54.345Z,37.75
2022-11-24T21:36:23.722Z,32.70
2022-11-24T21:38:56.148Z,34.50
2022-11-24T21:41:27.567Z,29.48
2022-11-24T21:44:00.486Z,28.70
2022-11-24T21:46:29.041Z,28.73
2022-11-24T21:48:55.876Z,28.85
2022-11-24T21:51:22.723Z,34.42
2022-11-24T21:53:49.578Z,35.88
2022-11-24T21:56:18.662Z,33.05
2022-11-24T21:58:47.169Z,34.53
2022-11-24T22:01:16.048Z,33.88
